Pelion, SC (29123)

12:39 PM EDT on May 27, 2015 (GMT -0400)
Pelion | | Change Station
CLOSE
Current Station
Personal Weather Station
Location: Pelion, SC
Elevation: 455 ft
Nearby Weather Stations

Elev 455 ft 33.77 °N, 81.20 °W | Updated 3 seconds ago

Mostly Cloudy
Mostly Cloudy
79.2 °F
Feels Like 82 °F
N
2.0
Wind Variable Wind from SE
Gusts 3.0 mph

Today
High -- | Low -- °F
--% Chance of Precip.
Yesterday
High -- | Low -- °F
Precip. -- in
6:17 AM 8:27 PM
Waxing Gibbous, 68% visible
Pressure 30.24 in
Visibility 10.0 miles
Clouds Scattered Clouds 2100 ft
Scattered Clouds 3000 ft
Scattered Clouds 20000 ft
Heat Index 82 °F
Dew Point 72 °F
Humidity 79%
Rainfall 0.01 in
Snow Depth Not available.
UV 9 out of 12
Pollen 4.60 out of 12
Air Quality Not available.
Flu Activity Local Activity
METAR KCAE 271556Z 25007KT 10SM SCT021TCU SCT030 SCT200 27/20 A3025 RMK AO2 LTG DSNT E RAB04E15 SLP239 TCU E-SE P0000 T02670200

More Conditions Fewer Conditions

Pressure 30.24 in
Visibility 10.0 miles
Clouds Scattered Clouds 2100 ft
Scattered Clouds 3000 ft
Scattered Clouds 20000 ft
Heat Index 82 °F
Dew Point 72 °F
Humidity 79%
Rainfall 0.01 in
Snow Depth Not available.
UV 9 out of 12
Pollen 4.60 out of 12
Air Quality Not available.
Flu Activity Local Activity
METAR KCAE 271556Z 25007KT 10SM SCT021TCU SCT030 SCT200 27/20 A3025 RMK AO2 LTG DSNT E RAB04E15 SLP239 TCU E-SE P0000 T02670200

More Conditions Fewer Conditions

10-Day Weather Forecast

Almanac

Astronomy

May. 27, 2015 Rise Set
Actual Time
Civil Twilight
Nautical Twilight
Astronomical Twilight
Moon
Length of Visible Light
Length of Day
Tomorrow will be .
, % of the Moon is Illuminated

Today's Extremes

State Highs State Lows

Community

WunderPhotos

Upload Photos

1,824,712 photos uploaded!

WunderBlogs® & News

Nearby

Air Quality

  Air Quality AQ Index Pollutant
Not available.

Snow Depth

Station Depth Elevation

Earthquake Activity

City Distance Mag. Time & Date
Minimum magnitude displayed is 2.5.

Coastal Water Temperatures

Place Temperature

Stations

Nearby Weather Stations

Station Location Temp. Windchill Dew Point Humidity Wind Precip. Elev Updated Type